Time;durP1;ratioP1;P1;durP2;ratioP2;P2;SDS_P1;SDS_P2;PMS_P1;PMS_P2;Temp;Humidity;BMP_temperature;BMP_pressure;BME280_temperature;BME280_humidity;BME280_pressure;Samples;Min_cycle;Max_cycle;Signal;HPM_P1;HPM_P2
2023/10/10 00:02:36;;;;;;;15.40;5.38;;;;;;;;;;4952762;28;20020;-83
2023/10/10 00:05:36;;;;;;;24.15;5.88;;;;;;;;;;4956274;29;20003;-85
2023/10/10 00:08:30;;;;;;;17.95;5.50;;;;;;;;;;4942932;29;20032;-83
2023/10/10 00:11:16;;;;;;;20.58;6.40;;;;;;;;;;4934426;29;20422;-84
2023/10/10 00:14:05;;;;;;;16.25;5.30;;;;;;;;;;4933580;29;20032;-84
2023/10/10 00:16:55;;;;;;;14.85;5.03;;;;;;;;;;4932549;29;20391;-85
2023/10/10 00:19:52;;;;;;;13.43;5.22;;;;;;;;;;4934701;29;20023;-84
2023/10/10 00:22:39;;;;;;;12.57;5.43;;;;;;;;;;4931253;29;20032;-83
2023/10/10 00:25:30;;;;;;;12.20;5.22;;;;;;;;;;4932695;29;20027;-84
2023/10/10 00:28:20;;;;;;;12.75;4.70;;;;;;;;;;4930726;29;20422;-84
2023/10/10 00:31:09;;;;;;;14.02;4.82;;;;;;;;;;4929641;29;20482;-84
2023/10/10 00:33:55;;;;;;;16.90;5.38;;;;;;;;;;4931442;29;20041;-84
2023/10/10 00:36:41;;;;;;;12.75;5.43;;;;;;;;;;4931405;29;20406;-84
2023/10/10 00:39:30;;;;;;;23.27;6.07;;;;;;;;;;4931676;29;20031;-84
2023/10/10 00:42:19;;;;;;;17.08;5.03;;;;;;;;;;4929731;29;20379;-84
2023/10/10 00:45:09;;;;;;;19.48;5.85;;;;;;;;;;4932001;29;20116;-83
2023/10/10 00:47:54;;;;;;;15.63;4.70;;;;;;;;;;4931207;29;20063;-84
2023/10/10 00:50:43;;;;;;;18.27;5.10;;;;;;;;;;4922450;29;20090;-84
2023/10/10 00:53:28;;;;;;;20.13;4.75;;;;;;;;;;4917551;29;20046;-85
2023/10/10 00:56:14;;;;;;;12.77;5.30;;;;;;;;;;4925505;29;20031;-84
2023/10/10 00:58:59;;;;;;;10.85;4.63;;;;;;;;;;4916483;29;20375;-85
2023/10/10 01:01:45;;;;;;;18.08;5.28;;;;;;;;;;4911502;29;20095;-85
2023/10/10 01:04:39;;;;;;;17.15;4.53;;;;;;;;;;4916537;29;20032;-84
2023/10/10 01:07:25;;;;;;;19.35;5.28;;;;;;;;;;4919209;29;20031;-84
2023/10/10 01:10:11;;;;;;;17.33;6.05;;;;;;;;;;4919345;29;20059;-84
2023/10/10 01:12:58;;;;;;;18.15;5.43;;;;;;;;;;4919447;29;20063;-84
2023/10/10 01:15:46;;;;;;;14.02;5.20;;;;;;;;;;4916125;29;20501;-83
2023/10/10 01:18:39;;;;;;;16.30;5.00;;;;;;;;;;4917381;29;20028;-84
2023/10/10 01:21:32;;;;;;;15.38;4.75;;;;;;;;;;4917361;29;20403;-83
2023/10/10 01:24:21;;;;;;;14.27;6.25;;;;;;;;;;4911484;29;20028;-82
2023/10/10 01:27:16;;;;;;;12.03;4.73;;;;;;;;;;4914441;29;20475;-82
2023/10/10 01:30:17;;;;;;;10.77;4.25;;;;;;;;;;4914958;29;20089;-83
2023/10/10 01:33:02;;;;;;;14.68;4.63;;;;;;;;;;4915479;29;20031;-84
2023/10/10 01:35:55;;;;;;;13.50;5.55;;;;;;;;;;4917078;29;20051;-83
2023/10/10 01:38:59;;;;;;;15.98;4.88;;;;;;;;;;4912441;29;20133;-83
2023/10/10 01:41:48;;;;;;;18.42;5.55;;;;;;;;;;4916575;29;20027;-83
2023/10/10 01:44:36;;;;;;;17.08;5.10;;;;;;;;;;4916645;29;20031;-83
2023/10/10 01:47:34;;;;;;;13.35;3.72;;;;;;;;;;4913554;29;20035;-83
2023/10/10 01:50:19;;;;;;;20.27;4.45;;;;;;;;;;4917943;29;20111;-83
2023/10/10 01:53:10;;;;;;;19.02;5.00;;;;;;;;;;4914843;29;20450;-84
2023/10/10 01:55:55;;;;;;;17.38;4.95;;;;;;;;;;4916662;29;20067;-83
2023/10/10 01:58:41;;;;;;;15.77;5.72;;;;;;;;;;4921504;29;20035;-84
2023/10/10 02:01:27;;;;;;;19.33;5.68;;;;;;;;;;4917112;29;20090;-83
2023/10/10 02:04:14;;;;;;;16.65;5.18;;;;;;;;;;4914451;29;20039;-83
2023/10/10 02:07:04;;;;;;;14.63;5.00;;;;;;;;;;4898919;29;20102;-83
2023/10/10 02:09:55;;;;;;;;;;;;;;;;;;4920663;29;20074;-83
2023/10/10 02:12:44;;;;;;;20.02;6.10;;;;;;;;;;4933842;29;19918;-83
2023/10/10 02:15:33;;;;;;;18.25;5.63;;;;;;;;;;4915701;29;20099;-83
2023/10/10 02:18:37;;;;;;;17.25;5.63;;;;;;;;;;4918171;29;20435;-83
2023/10/10 02:21:32;;;;;;;12.88;5.10;;;;;;;;;;4917400;29;20126;-83
2023/10/10 02:27:19;;;;;;;13.52;5.13;;;;;;;;;;4921669;29;20032;-83
2023/10/10 02:30:06;;;;;;;15.55;4.78;;;;;;;;;;4918595;29;20027;-84
2023/10/10 02:32:51;;;;;;;14.10;4.68;;;;;;;;;;4919959;29;20056;-81
2023/10/10 02:35:47;;;;;;;14.18;5.60;;;;;;;;;;4918327;29;20114;-84
2023/10/10 02:38:37;;;;;;;14.32;4.65;;;;;;;;;;4922959;29;20062;-84
2023/10/10 02:41:38;;;;;;;14.77;4.25;;;;;;;;;;4921061;29;20054;-82
2023/10/10 02:45:13;;;;;;;14.63;4.28;;;;;;;;;;4917230;29;20485;-85
2023/10/10 02:47:36;;;;;;;13.93;4.50;;;;;;;;;;4919431;29;20039;-84
2023/10/10 02:50:40;;;;;;;15.55;4.10;;;;;;;;;;4920425;29;20036;-83
2023/10/10 02:53:32;;;;;;;15.27;4.72;;;;;;;;;;4921640;29;20054;-85
2023/10/10 02:56:18;;;;;;;18.85;5.25;;;;;;;;;;4921354;29;20039;-84
2023/10/10 02:59:05;;;;;;;17.60;4.95;;;;;;;;;;4924769;29;20028;-84
2023/10/10 03:10:39;;;;;;;13.57;4.53;;;;;;;;;;5422051;23;20047;-83
2023/10/10 03:19:19;;;;;;;14.38;4.97;;;;;;;;;;4917399;29;20479;-84
2023/10/10 03:25:21;;;;;;;13.68;5.75;;;;;;;;;;4917655;29;20024;-83
2023/10/10 03:28:18;;;;;;;17.30;4.43;;;;;;;;;;4918208;29;20063;-83
2023/10/10 03:31:31;;;;;;;17.23;5.32;;;;;;;;;;4927337;29;20032;-84
2023/10/10 03:34:29;;;;;;;11.65;5.35;;;;;;;;;;4912473;29;20031;-83
2023/10/10 03:37:54;;;;;;;14.40;5.15;;;;;;;;;;4929806;29;20038;-82
2023/10/10 05:25:22;;;;;;;13.57;5.88;;;;;;;;;;4929542;29;20100;-83
2023/10/10 05:28:09;;;;;;;15.93;5.47;;;;;;;;;;4936372;29;20036;-82
2023/10/10 05:30:55;;;;;;;18.85;5.88;;;;;;;;;;4921152;29;20071;-81
2023/10/10 05:33:41;;;;;;;14.00;5.43;;;;;;;;;;4924199;29;20032;-84
2023/10/10 05:36:28;;;;;;;12.90;5.38;;;;;;;;;;4930629;29;20031;-82
2023/10/10 05:39:22;;;;;;;12.30;5.20;;;;;;;;;;4927167;29;20039;-81
2023/10/10 05:42:08;;;;;;;13.13;5.20;;;;;;;;;;4925149;29;20126;-81
2023/10/10 05:44:56;;;;;;;15.25;5.40;;;;;;;;;;4931681;29;20039;-82
2023/10/10 05:47:42;;;;;;;15.77;6.53;;;;;;;;;;4923706;29;20359;-81
2023/10/10 05:50:28;;;;;;;17.95;5.85;;;;;;;;;;4930376;29;20292;-81
2023/10/10 05:53:13;;;;;;;17.55;6.90;;;;;;;;;;4931870;29;20517;-81
2023/10/10 05:55:58;;;;;;;13.20;5.72;;;;;;;;;;4943070;28;20505;-83
2023/10/10 05:58:45;;;;;;;17.50;5.97;;;;;;;;;;4935678;29;20023;-88
2023/10/10 06:01:36;;;;;;;13.43;6.55;;;;;;;;;;4926936;29;20040;-89
2023/10/10 06:04:21;;;;;;;15.63;5.00;;;;;;;;;;4929543;29;20035;-88
2023/10/10 06:07:07;;;;;;;16.25;6.13;;;;;;;;;;4931869;29;20063;-88
2023/10/10 06:09:53;;;;;;;16.17;5.95;;;;;;;;;;4923572;29;20052;-88
2023/10/10 06:12:40;;;;;;;15.18;5.53;;;;;;;;;;4897279;29;20164;-82
2023/10/10 06:15:28;;;;;;;17.73;4.93;;;;;;;;;;4903205;29;20158;-81
2023/10/10 06:18:13;;;;;;;21.25;6.03;;;;;;;;;;4897893;29;20036;-84
2023/10/10 06:21:02;;;;;;;14.40;5.68;;;;;;;;;;4910634;29;20012;-82
2023/10/10 06:23:49;;;;;;;12.73;5.53;;;;;;;;;;4923066;29;20051;-85
2023/10/10 06:26:36;;;;;;;18.90;6.78;;;;;;;;;;4914850;29;20032;-86
2023/10/10 06:29:24;;;;;;;24.63;6.57;;;;;;;;;;4894092;29;20040;-85
2023/10/10 06:32:15;;;;;;;17.45;5.05;;;;;;;;;;4913932;29;20027;-84
2023/10/10 06:38:10;;;;;;;14.20;5.78;;;;;;;;;;4901225;29;20111;-86
2023/10/10 06:40:55;;;;;;;15.00;5.55;;;;;;;;;;4909911;29;20038;-86
2023/10/10 06:43:41;;;;;;;18.15;6.85;;;;;;;;;;4900150;29;20034;-85
2023/10/10 06:46:32;;;;;;;16.98;6.32;;;;;;;;;;4897858;29;20031;-86
2023/10/10 06:49:20;;;;;;;16.63;6.30;;;;;;;;;;4910508;29;20032;-86
2023/10/10 06:52:06;;;;;;;13.60;5.27;;;;;;;;;;4893678;29;20028;-86
2023/10/10 06:54:54;;;;;;;17.95;5.78;;;;;;;;;;4906462;29;20090;-82
2023/10/10 06:57:40;;;;;;;14.95;6.07;;;;;;;;;;4898196;29;20015;-83
2023/10/10 07:00:42;;;;;;;20.02;6.50;;;;;;;;;;4907578;29;20047;-83
2023/10/10 07:03:30;;;;;;;17.65;5.25;;;;;;;;;;4903189;29;20060;-88
2023/10/10 07:06:15;;;;;;;18.42;5.78;;;;;;;;;;4897083;29;24279;-84
2023/10/10 07:09:27;;;;;;;14.25;5.32;;;;;;;;;;4905231;29;20311;-80
2023/10/10 07:12:14;;;;;;;14.50;5.70;;;;;;;;;;4897234;29;20040;-83
2023/10/10 07:15:00;;;;;;;18.00;6.00;;;;;;;;;;4894137;29;20040;-85
2023/10/10 07:17:49;;;;;;;23.23;6.75;;;;;;;;;;4894401;29;20050;-84
2023/10/10 07:23:39;;;;;;;18.55;6.63;;;;;;;;;;4911007;29;20431;-83
2023/10/10 07:26:28;;;;;;;23.23;5.45;;;;;;;;;;4896319;29;20398;-83
2023/10/10 07:29:26;;;;;;;27.10;6.35;;;;;;;;;;4900688;29;20046;-84
2023/10/10 07:32:17;;;;;;;17.60;5.68;;;;;;;;;;4897502;29;20039;-84
2023/10/10 07:35:05;;;;;;;14.82;6.95;;;;;;;;;;4899627;29;20039;-84
2023/10/10 07:37:52;;;;;;;13.85;5.38;;;;;;;;;;4889670;29;20031;-84
2023/10/10 07:40:40;;;;;;;22.20;5.93;;;;;;;;;;4900391;29;20066;-82
2023/10/10 07:43:32;;;;;;;20.20;6.38;;;;;;;;;;4896482;29;20020;-82
2023/10/10 07:46:22;;;;;;;15.15;5.22;;;;;;;;;;4899087;29;20079;-83
2023/10/10 07:49:08;;;;;;;16.15;6.55;;;;;;;;;;4921215;29;20048;-83
2023/10/10 07:51:54;;;;;;;15.38;6.57;;;;;;;;;;4914762;29;20031;-84
2023/10/10 07:54:39;;;;;;;18.23;7.35;;;;;;;;;;4914640;29;20112;-85
2023/10/10 07:57:29;;;;;;;16.05;6.15;;;;;;;;;;4922123;29;20055;-84
2023/10/10 08:00:17;;;;;;;11.63;5.50;;;;;;;;;;4910159;29;20031;-83
2023/10/10 08:03:03;;;;;;;16.05;6.13;;;;;;;;;;4890020;29;20028;-83
2023/10/10 08:05:48;;;;;;;17.77;6.25;;;;;;;;;;4893774;29;20122;-89
2023/10/10 08:08:35;;;;;;;14.85;6.35;;;;;;;;;;4892195;29;20107;-86
2023/10/10 08:11:35;;;;;;;13.70;5.55;;;;;;;;;;4925722;29;20383;-86
2023/10/10 08:14:24;;;;;;;14.13;5.68;;;;;;;;;;4943711;28;20043;-87
2023/10/10 08:17:18;;;;;;;15.77;6.35;;;;;;;;;;4925148;29;20798;-85
2023/10/10 08:20:31;;;;;;;18.75;7.70;;;;;;;;;;4923219;29;20040;-85
2023/10/10 08:23:09;;;;;;;16.30;6.55;;;;;;;;;;4922069;29;20114;-85
2023/10/10 08:25:54;;;;;;;20.17;7.05;;;;;;;;;;4917830;29;20039;-88
2023/10/10 08:28:40;;;;;;;18.33;7.05;;;;;;;;;;4930136;29;20031;-85
2023/10/10 08:31:25;;;;;;;15.68;5.90;;;;;;;;;;4930097;29;20078;-86
2023/10/10 08:34:14;;;;;;;19.17;7.35;;;;;;;;;;4924664;29;20023;-86
2023/10/10 08:37:03;;;;;;;20.08;7.20;;;;;;;;;;4927458;29;20430;-86
2023/10/10 08:39:52;;;;;;;14.65;6.32;;;;;;;;;;4926626;29;20397;-87
2023/10/10 08:42:37;;;;;;;15.98;6.38;;;;;;;;;;4931581;29;20085;-84
2023/10/10 08:45:28;;;;;;;15.85;6.82;;;;;;;;;;4927879;29;20032;-82
2023/10/10 08:48:16;;;;;;;15.80;5.72;;;;;;;;;;4924789;29;20035;-85
2023/10/10 08:51:05;;;;;;;15.60;5.57;;;;;;;;;;4926783;29;20031;-88
2023/10/10 08:53:51;;;;;;;15.75;5.85;;;;;;;;;;4929577;29;20454;-85
2023/10/10 08:56:39;;;;;;;17.83;6.82;;;;;;;;;;4929329;29;20035;-86
2023/10/10 08:59:25;;;;;;;15.10;6.00;;;;;;;;;;4932303;29;20020;-85
2023/10/10 09:02:16;;;;;;;19.95;5.75;;;;;;;;;;4929066;29;20393;-85
2023/10/10 09:05:03;;;;;;;16.95;5.97;;;;;;;;;;4930681;29;20051;-86
2023/10/10 09:07:55;;;;;;;16.65;5.43;;;;;;;;;;4926699;29;20086;-85
2023/10/10 09:10:42;;;;;;;21.88;6.35;;;;;;;;;;4929102;29;20059;-85
2023/10/10 09:13:31;;;;;;;17.35;7.30;;;;;;;;;;4929918;29;20078;-86
2023/10/10 09:16:17;;;;;;;;;;;;;;;;;;4923665;29;20122;-85
2023/10/10 09:19:17;;;;;;;17.50;6.93;;;;;;;;;;4930402;29;19922;-86
2023/10/10 09:22:12;;;;;;;16.98;7.88;;;;;;;;;;4926530;29;20031;-85
2023/10/10 09:24:59;;;;;;;17.02;6.35;;;;;;;;;;4928363;29;20536;-86
2023/10/10 09:27:57;;;;;;;18.40;7.13;;;;;;;;;;4928428;29;20110;-86
2023/10/10 09:30:49;;;;;;;16.10;6.88;;;;;;;;;;4925295;29;20038;-86
2023/10/10 09:33:34;;;;;;;24.50;7.78;;;;;;;;;;4924618;29;20061;-88
2023/10/10 09:36:28;;;;;;;18.33;7.55;;;;;;;;;;4926564;29;20032;-93
2023/10/10 09:39:36;;;;;;;22.88;7.25;;;;;;;;;;4936299;29;20524;-93
2023/10/10 09:46:10;;;;;;;19.58;6.93;;;;;;;;;;4947338;29;20063;-91
2023/10/10 09:52:58;;;;;;;23.77;7.50;;;;;;;;;;4920243;29;20071;-91
2023/10/10 09:56:08;;;;;;;20.30;7.13;;;;;;;;;;4936124;29;20095;-91
2023/10/10 09:59:28;;;;;;;20.55;6.57;;;;;;;;;;4935608;28;20063;-85
2023/10/10 10:02:22;;;;;;;16.73;7.38;;;;;;;;;;4938112;28;20038;-84
2023/10/10 10:05:20;;;;;;;16.42;6.25;;;;;;;;;;4925772;29;20653;-84
2023/10/10 10:08:37;;;;;;;14.80;6.40;;;;;;;;;;4927389;29;20051;-83
2023/10/10 10:11:33;;;;;;;19.38;5.97;;;;;;;;;;4921593;29;20098;-84
2023/10/10 10:14:25;;;;;;;23.70;7.32;;;;;;;;;;4922903;29;20023;-84
2023/10/10 10:17:18;;;;;;;23.95;7.25;;;;;;;;;;4922555;29;20040;-84
2023/10/10 10:20:19;;;;;;;17.58;6.60;;;;;;;;;;4926870;29;20024;-85
2023/10/10 10:23:06;;;;;;;15.98;6.53;;;;;;;;;;4924418;29;20028;-87
2023/10/10 10:25:52;;;;;;;18.20;7.10;;;;;;;;;;4929587;29;20110;-88
2023/10/10 10:28:41;;;;;;;14.32;5.90;;;;;;;;;;4926271;29;20426;-83
2023/10/10 10:31:32;;;;;;;17.02;6.07;;;;;;;;;;4933276;29;20130;-84
2023/10/10 10:34:31;;;;;;;17.90;6.95;;;;;;;;;;4923023;29;20072;-82
2023/10/10 10:37:21;;;;;;;16.98;5.63;;;;;;;;;;4925990;29;20524;-84
2023/10/10 10:42:58;;;;;;;21.92;7.63;;;;;;;;;;4934389;28;20031;-86
2023/10/10 10:45:51;;;;;;;25.10;6.75;;;;;;;;;;4929484;29;20363;-82
2023/10/10 10:48:39;;;;;;;16.23;5.60;;;;;;;;;;4928262;29;20031;-82
2023/10/10 10:51:32;;;;;;;16.13;6.32;;;;;;;;;;4938598;28;20028;-82
2023/10/10 10:54:35;;;;;;;17.23;6.88;;;;;;;;;;4946076;28;20086;-85
2023/10/10 10:57:29;;;;;;;19.73;6.63;;;;;;;;;;4928878;29;20040;-82
2023/10/10 11:00:40;;;;;;;17.65;7.88;;;;;;;;;;4934112;28;20032;-83
2023/10/10 11:03:33;;;;;;;18.08;6.70;;;;;;;;;;4937779;29;20517;-84
2023/10/10 11:06:24;;;;;;;17.40;7.00;;;;;;;;;;4931691;29;20027;-83
2023/10/10 11:09:23;;;;;;;23.95;7.40;;;;;;;;;;4930577;29;20075;-84
2023/10/10 11:12:08;;;;;;;18.33;6.55;;;;;;;;;;4938996;28;20521;-86
2023/10/10 11:14:53;;;;;;;17.88;7.57;;;;;;;;;;4921279;29;20090;-89
2023/10/10 11:17:39;;;;;;;18.73;7.07;;;;;;;;;;4925679;29;20497;-88
2023/10/10 11:20:54;;;;;;;21.02;7.55;;;;;;;;;;4932699;29;20031;-91
2023/10/10 11:23:41;;;;;;;15.00;6.57;;;;;;;;;;4932785;28;20044;-85
2023/10/10 11:26:35;;;;;;;15.75;6.55;;;;;;;;;;4928844;29;20110;-84
2023/10/10 11:29:27;;;;;;;18.63;7.20;;;;;;;;;;4932748;28;20040;-88
2023/10/10 11:32:13;;;;;;;17.25;6.70;;;;;;;;;;4936347;29;20039;-86
2023/10/10 11:35:18;;;;;;;16.10;6.75;;;;;;;;;;4929438;29;20114;-83
2023/10/10 11:38:09;;;;;;;20.55;7.68;;;;;;;;;;4926986;29;20046;-88
2023/10/10 11:40:54;;;;;;;16.10;6.28;;;;;;;;;;4928351;29;20028;-85
2023/10/10 11:44:01;;;;;;;16.33;6.47;;;;;;;;;;4927522;29;20062;-84
2023/10/10 11:46:47;;;;;;;18.55;6.30;;;;;;;;;;4929783;29;20058;-84
2023/10/10 11:49:32;;;;;;;19.45;7.10;;;;;;;;;;4930867;29;20044;-81
2023/10/10 11:52:18;;;;;;;18.42;7.20;;;;;;;;;;4939849;28;20037;-83
2023/10/10 11:55:07;;;;;;;17.60;7.10;;;;;;;;;;4928823;28;20038;-84
2023/10/10 11:57:58;;;;;;;16.20;7.57;;;;;;;;;;4931042;29;20351;-85
2023/10/10 12:00:43;;;;;;;16.00;7.75;;;;;;;;;;4928545;29;20038;-87
2023/10/10 12:06:26;;;;;;;20.33;7.40;;;;;;;;;;4926731;29;20035;-82
2023/10/10 12:09:16;;;;;;;16.70;6.97;;;;;;;;;;4924060;29;20043;-84
2023/10/10 12:12:04;;;;;;;19.20;6.90;;;;;;;;;;4895546;29;20036;-86
2023/10/10 12:14:50;;;;;;;21.37;7.40;;;;;;;;;;4892046;29;20044;-86
2023/10/10 12:17:38;;;;;;;15.93;7.28;;;;;;;;;;4896682;29;20272;-86
2023/10/10 12:20:25;;;;;;;20.75;7.38;;;;;;;;;;4899906;29;20032;-86
2023/10/10 12:23:10;;;;;;;26.13;7.80;;;;;;;;;;4901464;29;20119;-87
2023/10/10 12:25:56;;;;;;;22.65;6.55;;;;;;;;;;4896116;29;20032;-86
2023/10/10 12:28:43;;;;;;;22.10;7.90;;;;;;;;;;4897624;29;20537;-81
2023/10/10 12:31:33;;;;;;;17.95;6.65;;;;;;;;;;4896352;29;20127;-82
2023/10/10 12:34:21;;;;;;;15.90;6.65;;;;;;;;;;4893727;29;20051;-83
2023/10/10 12:37:06;;;;;;;19.50;7.03;;;;;;;;;;4893649;29;20051;-83
2023/10/10 12:39:52;;;;;;;17.08;6.15;;;;;;;;;;4890914;29;20035;-83
2023/10/10 12:42:38;;;;;;;16.23;6.07;;;;;;;;;;4892470;29;20638;-83
2023/10/10 12:45:24;;;;;;;18.55;6.32;;;;;;;;;;4896616;29;20036;-86
2023/10/10 12:48:20;;;;;;;18.77;6.60;;;;;;;;;;4888226;29;20032;-84
2023/10/10 12:51:09;;;;;;;26.08;6.55;;;;;;;;;;4902368;29;20056;-86
2023/10/10 12:54:03;;;;;;;15.00;6.07;;;;;;;;;;4910539;29;20083;-84
2023/10/10 12:56:54;;;;;;;17.20;6.82;;;;;;;;;;4897277;29;20501;-86
2023/10/10 12:59:45;;;;;;;17.80;6.47;;;;;;;;;;4894512;29;20434;-87
2023/10/10 13:02:31;;;;;;;18.95;7.80;;;;;;;;;;4895330;29;20032;-84
2023/10/10 13:05:26;;;;;;;22.08;7.10;;;;;;;;;;4894956;29;20046;-85
2023/10/10 13:08:14;;;;;;;19.65;6.72;;;;;;;;;;4900697;29;20092;-85
2023/10/10 13:11:02;;;;;;;21.38;7.15;;;;;;;;;;4919382;29;20127;-86
2023/10/10 13:13:51;;;;;;;13.00;5.70;;;;;;;;;;4928361;29;20073;-86
2023/10/10 13:19:28;;;;;;;17.58;7.43;;;;;;;;;;4929436;29;20044;-83
2023/10/10 13:22:20;;;;;;;18.73;8.00;;;;;;;;;;4917889;29;20027;-83
2023/10/10 13:25:09;;;;;;;15.98;6.45;;;;;;;;;;4934278;28;20055;-83
2023/10/10 13:27:57;;;;;;;22.13;5.95;;;;;;;;;;4929797;29;20034;-79
2023/10/10 13:30:46;;;;;;;17.02;7.35;;;;;;;;;;4922284;29;20379;-89
2023/10/10 13:33:31;;;;;;;23.80;7.70;;;;;;;;;;4925781;29;20363;-87
2023/10/10 13:36:17;;;;;;;24.27;6.75;;;;;;;;;;4928542;29;20079;-87
2023/10/10 13:39:06;;;;;;;18.08;7.22;;;;;;;;;;4926107;29;20027;-88
2023/10/10 13:41:51;;;;;;;12.95;6.53;;;;;;;;;;4928720;29;20051;-83
2023/10/10 13:44:37;;;;;;;18.95;6.65;;;;;;;;;;4922300;29;20044;-87
2023/10/10 13:47:24;;;;;;;17.67;6.45;;;;;;;;;;4926365;29;20032;-86
2023/10/10 13:50:44;;;;;;;17.00;5.88;;;;;;;;;;4923364;29;20387;-87
2023/10/10 13:53:21;;;;;;;18.35;7.00;;;;;;;;;;4924167;29;20030;-87
2023/10/10 13:56:07;;;;;;;20.63;5.78;;;;;;;;;;4935790;28;20040;-84
2023/10/10 13:58:53;;;;;;;16.60;6.93;;;;;;;;;;4926873;29;20036;-82
2023/10/10 14:01:40;;;;;;;19.35;8.27;;;;;;;;;;4925390;29;20047;-81
2023/10/10 14:04:27;;;;;;;20.85;7.05;;;;;;;;;;4932527;29;20042;-84
2023/10/10 14:07:15;;;;;;;17.90;6.97;;;;;;;;;;4933296;29;20379;-83
2023/10/10 14:10:05;;;;;;;14.85;5.97;;;;;;;;;;4932799;29;20044;-84
2023/10/10 14:12:50;;;;;;;22.13;7.13;;;;;;;;;;4934031;29;20091;-84
2023/10/10 14:15:35;;;;;;;19.23;7.47;;;;;;;;;;4934255;29;20038;-83
2023/10/10 14:18:24;;;;;;;21.80;7.18;;;;;;;;;;4918571;29;20479;-81
2023/10/10 14:21:10;;;;;;;15.43;6.30;;;;;;;;;;4931426;29;20082;-81
2023/10/10 14:24:07;;;;;;;14.38;6.43;;;;;;;;;;4933592;29;20042;-82
2023/10/10 14:26:52;;;;;;;14.98;5.63;;;;;;;;;;4931657;29;20414;-82
2023/10/10 14:29:43;;;;;;;15.60;6.75;;;;;;;;;;4929151;29;20114;-81
2023/10/10 14:32:28;;;;;;;22.10;6.18;;;;;;;;;;4927530;29;20035;-82
2023/10/10 14:35:15;;;;;;;16.75;6.40;;;;;;;;;;4928498;29;20028;-81
2023/10/10 14:38:00;;;;;;;19.25;6.05;;;;;;;;;;4933790;29;20024;-83
2023/10/10 14:40:46;;;;;;;18.35;6.90;;;;;;;;;;4931428;29;20087;-83
2023/10/10 14:43:32;;;;;;;17.20;6.70;;;;;;;;;;4932019;29;20090;-82
2023/10/10 14:46:21;;;;;;;20.30;6.25;;;;;;;;;;4926435;29;20493;-83
2023/10/10 14:49:10;;;;;;;18.87;6.90;;;;;;;;;;4934659;29;20516;-82
2023/10/10 14:52:03;;;;;;;17.80;6.03;;;;;;;;;;4917778;29;20035;-85
2023/10/10 14:54:54;;;;;;;18.85;7.05;;;;;;;;;;4928672;29;20497;-84
2023/10/10 14:57:41;;;;;;;20.50;6.80;;;;;;;;;;4940170;28;20031;-83
2023/10/10 15:00:28;;;;;;;17.33;6.28;;;;;;;;;;4925702;29;20024;-81
2023/10/10 15:03:15;;;;;;;15.02;6.45;;;;;;;;;;4933541;29;20167;-85
2023/10/10 15:06:06;;;;;;;16.92;6.15;;;;;;;;;;4932386;29;20035;-86
2023/10/10 15:08:55;;;;;;;18.50;7.78;;;;;;;;;;4928988;29;20039;-85
2023/10/10 15:11:41;;;;;;;17.75;6.55;;;;;;;;;;4923554;29;20048;-85
2023/10/10 15:14:31;;;;;;;16.60;7.38;;;;;;;;;;4960570;29;20031;-84
2023/10/10 15:17:16;;;;;;;17.33;7.03;;;;;;;;;;4958039;28;20034;-85
2023/10/10 15:20:05;;;;;;;15.68;6.80;;;;;;;;;;4947368;29;20024;-85
2023/10/10 15:22:51;;;;;;;13.50;5.60;;;;;;;;;;4950079;28;20099;-84
2023/10/10 15:25:36;;;;;;;21.27;6.97;;;;;;;;;;4931667;29;20074;-83
2023/10/10 15:28:23;;;;;;;18.83;6.55;;;;;;;;;;4932863;29;20028;-83
2023/10/10 15:31:09;;;;;;;19.05;6.35;;;;;;;;;;4942690;29;20030;-83
2023/10/10 15:33:57;;;;;;;15.15;6.25;;;;;;;;;;4941055;29;20051;-82
2023/10/10 15:36:44;;;;;;;17.42;8.32;;;;;;;;;;4932892;29;20031;-82
2023/10/10 15:39:34;;;;;;;18.08;8.52;;;;;;;;;;4941475;29;20023;-83
2023/10/10 15:42:34;;;;;;;14.30;6.93;;;;;;;;;;4937448;29;20118;-82
2023/10/10 15:45:20;;;;;;;22.83;8.63;;;;;;;;;;4916409;29;20541;-83
2023/10/10 15:48:18;;;;;;;18.58;7.65;;;;;;;;;;4931825;29;20557;-84
2023/10/10 15:51:08;;;;;;;20.10;7.88;;;;;;;;;;4934560;29;20031;-83
2023/10/10 15:53:54;;;;;;;20.00;7.25;;;;;;;;;;4940358;28;20057;-82
2023/10/10 15:56:39;;;;;;;16.55;7.53;;;;;;;;;;4924080;29;20027;-83
2023/10/10 15:59:25;;;;;;;18.08;7.70;;;;;;;;;;4935755;29;20032;-83
2023/10/10 16:02:13;;;;;;;20.48;8.10;;;;;;;;;;4943073;28;20032;-82
2023/10/10 16:05:00;;;;;;;22.00;9.68;;;;;;;;;;4927058;29;20106;-85
2023/10/10 16:07:46;;;;;;;23.45;7.55;;;;;;;;;;4932702;29;20036;-83
2023/10/10 16:10:32;;;;;;;16.88;7.88;;;;;;;;;;4920339;29;20056;-83
2023/10/10 16:13:18;;;;;;;16.77;6.57;;;;;;;;;;4925492;29;20051;-84
2023/10/10 16:16:06;;;;;;;22.02;7.95;;;;;;;;;;4941424;28;20097;-84
2023/10/10 16:18:51;;;;;;;17.75;6.88;;;;;;;;;;4926503;29;20036;-83
2023/10/10 16:21:38;;;;;;;19.52;7.45;;;;;;;;;;4930531;29;20493;-84
2023/10/10 16:24:24;;;;;;;17.55;8.40;;;;;;;;;;4928015;29;20032;-84
2023/10/10 16:27:10;;;;;;;20.70;9.05;;;;;;;;;;4933121;29;20019;-83
2023/10/10 16:29:55;;;;;;;20.50;8.73;;;;;;;;;;4933033;29;20077;-83
2023/10/10 16:32:43;;;;;;;22.65;8.68;;;;;;;;;;4927045;29;20118;-83
2023/10/10 16:35:31;;;;;;;17.23;8.50;;;;;;;;;;4933198;29;20449;-87
2023/10/10 16:38:21;;;;;;;18.92;8.20;;;;;;;;;;4946030;28;20047;-88
2023/10/10 16:41:07;;;;;;;18.27;8.73;;;;;;;;;;4927282;29;20041;-84
2023/10/10 16:43:52;;;;;;;21.63;7.25;;;;;;;;;;4930921;29;20123;-84
2023/10/10 16:46:40;;;;;;;14.05;6.32;;;;;;;;;;4925347;29;20485;-85
2023/10/10 16:49:28;;;;;;;20.88;8.00;;;;;;;;;;4925377;29;20051;-84
2023/10/10 16:52:13;;;;;;;18.63;8.40;;;;;;;;;;4923340;29;20505;-86
2023/10/10 16:55:09;;;;;;;19.90;8.15;;;;;;;;;;4922556;29;20577;-87
2023/10/10 16:57:57;;;;;;;21.80;8.13;;;;;;;;;;4936546;29;20051;-88
2023/10/10 17:00:48;;;;;;;22.02;8.80;;;;;;;;;;4928695;29;20053;-86
2023/10/10 17:03:33;;;;;;;26.55;11.02;;;;;;;;;;4920193;29;20043;-83
2023/10/10 17:06:31;;;;;;;19.23;10.23;;;;;;;;;;4928681;29;20118;-83
2023/10/10 17:09:16;;;;;;;26.00;9.93;;;;;;;;;;4935231;29;20028;-83
2023/10/10 17:12:02;;;;;;;21.15;9.18;;;;;;;;;;4904413;29;20040;-85
2023/10/10 17:14:47;;;;;;;20.10;8.63;;;;;;;;;;4902048;29;20028;-84
2023/10/10 17:17:33;;;;;;;22.05;8.60;;;;;;;;;;4893638;29;20822;-86
2023/10/10 17:20:18;;;;;;;21.08;8.80;;;;;;;;;;4892185;29;20040;-87
2023/10/10 17:23:03;;;;;;;18.70;8.50;;;;;;;;;;4901425;29;20027;-86
2023/10/10 17:25:48;;;;;;;21.50;7.72;;;;;;;;;;4896613;29;20128;-86
2023/10/10 17:28:34;;;;;;;15.55;7.43;;;;;;;;;;4895549;29;20040;-84
2023/10/10 17:31:28;;;;;;;18.95;8.73;;;;;;;;;;4891580;29;20038;-84
2023/10/10 17:34:15;;;;;;;21.77;8.43;;;;;;;;;;4899264;29;20032;-84
2023/10/10 17:37:00;;;;;;;20.77;8.25;;;;;;;;;;4895282;29;20051;-86
2023/10/10 17:39:48;;;;;;;17.42;7.25;;;;;;;;;;4901380;29;20028;-85
2023/10/10 17:42:34;;;;;;;20.67;7.55;;;;;;;;;;4899755;29;20036;-83
2023/10/10 17:45:20;;;;;;;16.27;7.00;;;;;;;;;;4903859;29;20040;-83
2023/10/10 17:48:05;;;;;;;25.38;9.73;;;;;;;;;;4904238;29;20043;-83
2023/10/10 17:50:50;;;;;;;19.58;9.15;;;;;;;;;;4902428;29;20032;-84
2023/10/10 17:53:35;;;;;;;17.40;7.85;;;;;;;;;;4900827;29;20044;-83
2023/10/10 17:56:24;;;;;;;19.88;9.00;;;;;;;;;;4897637;29;20039;-83
2023/10/10 17:59:11;;;;;;;22.17;9.98;;;;;;;;;;4904509;29;20027;-84
2023/10/10 18:01:56;;;;;;;20.45;10.75;;;;;;;;;;4904527;29;20028;-84
2023/10/10 18:04:42;;;;;;;25.20;9.82;;;;;;;;;;4905924;29;20020;-83
2023/10/10 18:11:00;;;;;;;18.58;8.32;;;;;;;;;;4926325;28;20106;-85
2023/10/10 18:13:46;;;;;;;19.58;7.97;;;;;;;;;;4931050;29;20023;-85
2023/10/10 18:16:34;;;;;;;19.88;9.43;;;;;;;;;;4929868;29;20039;-83
2023/10/10 18:19:20;;;;;;;19.75;7.55;;;;;;;;;;4942654;28;20032;-84
2023/10/10 18:22:05;;;;;;;19.30;8.27;;;;;;;;;;4915558;29;20129;-83
2023/10/10 18:24:52;;;;;;;19.25;8.63;;;;;;;;;;4941730;29;20039;-83
2023/10/10 18:27:37;;;;;;;19.55;8.70;;;;;;;;;;4937246;28;20071;-82
2023/10/10 18:30:23;;;;;;;21.63;8.07;;;;;;;;;;4941633;28;20020;-89
2023/10/10 18:33:10;;;;;;;27.08;9.43;;;;;;;;;;4941586;29;20541;-90
2023/10/10 18:35:55;;;;;;;21.38;8.13;;;;;;;;;;4934139;29;20036;-89
2023/10/10 18:38:41;;;;;;;19.33;9.73;;;;;;;;;;4931480;29;20112;-89
2023/10/10 18:41:26;;;;;;;18.88;8.57;;;;;;;;;;4931976;29;20034;-88
2023/10/10 18:44:15;;;;;;;17.58;7.72;;;;;;;;;;4947948;28;20612;-90
2023/10/10 18:47:01;;;;;;;17.92;8.25;;;;;;;;;;4921431;29;20042;-91
2023/10/10 18:49:47;;;;;;;15.52;6.70;;;;;;;;;;4931308;29;20055;-90
2023/10/10 18:52:33;;;;;;;23.35;7.57;;;;;;;;;;4929605;29;20047;-92
2023/10/10 18:55:27;;;;;;;15.15;7.68;;;;;;;;;;4927994;29;20036;-92
2023/10/10 18:58:18;;;;;;;24.40;8.45;;;;;;;;;;4926667;29;20039;-92
2023/10/10 19:01:09;;;;;;;22.08;7.72;;;;;;;;;;4932363;29;20053;-91
2023/10/10 19:03:56;;;;;;;21.42;8.68;;;;;;;;;;4922936;29;20043;-92
2023/10/10 19:06:49;;;;;;;18.33;8.60;;;;;;;;;;4934231;29;20023;-91
2023/10/10 19:09:37;;;;;;;19.30;8.52;;;;;;;;;;4931714;28;20052;-90
2023/10/10 19:12:23;;;;;;;22.20;8.93;;;;;;;;;;4894515;29;20032;-91
2023/10/10 19:15:12;;;;;;;21.90;8.10;;;;;;;;;;4901968;29;20033;-91